Laguna Heights, Texas
Current Conditions -  °F | °C
As of 10:53 PM on Monday 22 Dec 2014 (Local Time) from KPIL Reporting Station
Haze Haze  
Wind Chill: 67°   Ceiling: Unl
Heat Index: 67°   Visibility: 5mi
Dew Point: 66°   Wind: 10mph
Humidity: 97%   Direction: 180°S
Pressure: 29.63"   Gusts: NA
Location:  26.0776°N, 97.3389°W
Report Text: KPIL 230453Z AUTO 18009KT 5SM BR CLR 19/19 A2963 RMK AO2 SLP033 T01940189 $
Loading
Personal Weather Stations






























Interactive Weather Map New forecast layout! Learn more

10-Day Weather Forecast

Advertisements
Track Severe Weather on mobile